Airport ID:KEDC
Update Time (UTC):18 JAN 19 18:50
Wind Speed (Knots):10
Wind Direction (Magnetic):190
Temperature (°C):15
Dew Point (°C):15
Humidity (%):95
Altimeter (inHg):29.9
Density Altitude (Feet):
Visibility (Miles):8
Clouds (Hundreds of feet):OVC004
Present Weather:NO PRECIPITATION
METAR:METAR KEDC 181850Z AUTO 19011G18KT 8SM OVC004 15/15 A2990 RMK AO2

The data displayed is for advisory purposes only and is not to be used for flight planning or operations.

This page is not automatically refreshed. Reload the page to see current data.